createdAt,value
2018-09-15T00:00:34.100Z,46.30
2018-09-15T00:01:38.409Z,46.30
2018-09-15T00:02:42.677Z,46.30
2018-09-15T00:03:47.097Z,46.30
2018-09-15T00:04:51.336Z,46.30
2018-09-15T00:05:55.559Z,46.30
2018-09-15T00:06:59.806Z,46.40
2018-09-15T00:08:04.013Z,46.30
2018-09-15T00:09:08.540Z,46.40
2018-09-15T00:10:13.245Z,46.40
2018-09-15T00:11:17.842Z,46.40
2018-09-15T00:12:22.432Z,46.50
2018-09-15T00:13:27.028Z,46.40
2018-09-15T00:14:31.681Z,46.50
2018-09-15T00:15:36.269Z,46.40
2018-09-15T00:16:40.777Z,46.40
2018-09-15T00:17:45.299Z,46.40
2018-09-15T00:18:49.823Z,46.40
2018-09-15T00:19:54.488Z,46.40
2018-09-15T00:20:59.002Z,46.50
2018-09-15T00:22:03.490Z,46.40
2018-09-15T00:23:08.296Z,46.50
2018-09-15T00:24:12.667Z,46.40
2018-09-15T00:25:17.159Z,46.50
2018-09-15T00:26:21.656Z,46.50
2018-09-15T00:27:26.141Z,46.50
2018-09-15T00:28:30.693Z,46.50
2018-09-15T00:29:35.346Z,46.50
2018-09-15T00:30:39.991Z,46.50
2018-09-15T00:31:44.597Z,46.50
2018-09-15T00:32:49.485Z,46.50
2018-09-15T00:33:54.114Z,46.50
2018-09-15T00:34:58.909Z,46.50
2018-09-15T00:36:03.536Z,46.60
2018-09-15T00:37:08.151Z,46.60
2018-09-15T00:38:12.778Z,46.60
2018-09-15T00:39:17.601Z,46.60
2018-09-15T00:40:22.301Z,46.60
2018-09-15T00:41:26.960Z,46.60
2018-09-15T00:42:31.428Z,46.60
2018-09-15T00:43:35.798Z,46.60
2018-09-15T00:44:40.232Z,46.60
2018-09-15T00:45:44.474Z,46.60
2018-09-15T00:46:48.727Z,46.60
2018-09-15T00:47:53.184Z,46.60
2018-09-15T00:48:57.423Z,46.80
2018-09-15T00:50:01.697Z,46.60
2018-09-15T00:51:06.140Z,46.60
2018-09-15T00:52:10.432Z,46.60
2018-09-15T00:53:14.741Z,46.70
2018-09-15T00:54:19.151Z,46.60
2018-09-15T00:55:23.525Z,46.60
2018-09-15T00:56:27.731Z,46.80
2018-09-15T00:57:31.965Z,46.70
2018-09-15T00:58:36.363Z,46.70
2018-09-15T00:59:40.758Z,46.70
2018-09-15T01:00:45.048Z,46.70
2018-09-15T01:01:49.267Z,46.70
2018-09-15T01:02:53.615Z,46.70
2018-09-15T01:03:57.840Z,46.70
2018-09-15T01:05:02.043Z,46.70
2018-09-15T01:06:06.370Z,47.40
2018-09-15T01:07:10.633Z,46.80
2018-09-15T01:08:14.864Z,46.70
2018-09-15T01:09:19.070Z,47.40
2018-09-15T01:10:23.497Z,46.70
2018-09-15T01:11:27.715Z,46.80
2018-09-15T01:12:32.092Z,46.80
2018-09-15T01:13:36.374Z,46.70
2018-09-15T01:14:40.877Z,46.80
2018-09-15T01:15:45.292Z,46.80
2018-09-15T01:16:49.768Z,46.90
2018-09-15T01:17:54.073Z,46.80
2018-09-15T01:18:58.502Z,46.80
2018-09-15T01:20:03.087Z,46.80
2018-09-15T01:21:07.456Z,46.80
2018-09-15T01:22:11.728Z,46.80
2018-09-15T01:23:16.033Z,46.80
2018-09-15T01:24:20.482Z,46.80
2018-09-15T01:25:24.735Z,46.80
2018-09-15T01:26:29.253Z,46.90
2018-09-15T01:27:33.574Z,46.80
2018-09-15T01:28:37.904Z,46.80
2018-09-15T01:29:42.364Z,46.90
2018-09-15T01:30:46.625Z,46.90
2018-09-15T01:31:50.860Z,46.90
2018-09-15T01:32:55.115Z,47.00
2018-09-15T01:33:59.578Z,46.90
2018-09-15T01:35:03.918Z,46.90
2018-09-15T01:36:08.356Z,46.90
2018-09-15T01:37:12.813Z,47.00
2018-09-15T01:38:17.149Z,46.90
2018-09-15T01:39:21.401Z,46.90
2018-09-15T01:40:25.733Z,46.90
2018-09-15T01:41:30.083Z,46.90
2018-09-15T01:42:34.372Z,46.90
2018-09-15T01:43:38.920Z,46.90
2018-09-15T01:44:43.385Z,47.60
2018-09-15T01:45:47.708Z,46.90
2018-09-15T01:46:52.121Z,47.00
2018-09-15T01:47:56.416Z,47.00
2018-09-15T01:49:00.887Z,47.00
2018-09-15T01:50:05.161Z,47.10
2018-09-15T01:51:09.688Z,46.90
2018-09-15T01:52:14.129Z,47.60
2018-09-15T01:53:18.434Z,47.10
2018-09-15T01:54:22.735Z,47.00
2018-09-15T01:55:27.048Z,47.00
2018-09-15T01:56:31.328Z,47.00
2018-09-15T01:57:35.888Z,47.10
2018-09-15T01:58:40.295Z,47.00
2018-09-15T01:59:44.835Z,47.00
2018-09-15T02:00:49.288Z,47.00
2018-09-15T02:01:53.579Z,47.10
2018-09-15T02:02:58.009Z,47.00
2018-09-15T02:04:02.314Z,47.00
2018-09-15T02:05:06.823Z,47.20
2018-09-15T02:06:11.142Z,47.20
2018-09-15T02:07:15.416Z,47.20
2018-09-15T02:08:19.654Z,47.20
2018-09-15T02:09:24.081Z,47.10
2018-09-15T02:10:28.518Z,47.20
2018-09-15T02:11:32.943Z,47.20
2018-09-15T02:12:37.421Z,47.10
2018-09-15T02:13:41.871Z,47.10
2018-09-15T02:14:46.147Z,47.80
2018-09-15T02:15:50.582Z,47.10
2018-09-15T02:16:54.981Z,47.10
2018-09-15T02:17:59.239Z,47.10
2018-09-15T02:19:03.644Z,47.20
2018-09-15T02:20:07.933Z,47.10
2018-09-15T02:21:12.168Z,47.20
2018-09-15T02:22:16.578Z,47.10
2018-09-15T02:23:20.824Z,47.20
2018-09-15T02:24:25.242Z,47.20
2018-09-15T02:25:29.494Z,47.20
2018-09-15T02:26:34.025Z,47.20
2018-09-15T02:27:38.274Z,47.20
2018-09-15T02:28:42.752Z,47.20
2018-09-15T02:29:47.208Z,47.20
2018-09-15T02:30:51.650Z,47.20
2018-09-15T02:31:56.069Z,47.30
2018-09-15T02:33:00.269Z,47.30
2018-09-15T02:34:04.682Z,47.20
2018-09-15T02:35:08.912Z,47.20
2018-09-15T02:36:13.335Z,47.30
2018-09-15T02:37:17.568Z,47.20
2018-09-15T02:38:21.980Z,47.30
2018-09-15T02:39:26.393Z,47.30
2018-09-15T02:40:30.786Z,47.20
2018-09-15T02:41:34.995Z,47.30
2018-09-15T02:42:39.239Z,47.30
2018-09-15T02:43:43.710Z,47.20
2018-09-15T02:44:47.963Z,47.30
2018-09-15T02:45:52.183Z,47.30
2018-09-15T02:46:56.598Z,47.30
2018-09-15T02:48:00.823Z,47.30
2018-09-15T02:49:05.338Z,47.30
2018-09-15T02:50:09.680Z,47.90
2018-09-15T02:51:14.131Z,47.90
2018-09-15T02:52:18.584Z,47.30
2018-09-15T02:53:22.974Z,48.00
2018-09-15T02:54:27.247Z,47.30
2018-09-15T02:55:31.550Z,47.30
2018-09-15T02:56:36.018Z,47.50
2018-09-15T02:57:40.274Z,47.40
2018-09-15T02:58:44.555Z,47.30
2018-09-15T02:59:48.806Z,47.40
2018-09-15T03:00:53.053Z,47.40
2018-09-15T03:01:57.457Z,47.30
2018-09-15T03:03:01.871Z,47.30
2018-09-15T03:04:06.454Z,47.30
2018-09-15T03:05:10.873Z,47.30
2018-09-15T03:06:15.117Z,48.00
2018-09-15T03:07:19.524Z,47.30
2018-09-15T03:08:23.772Z,47.30
2018-09-15T03:09:28.011Z,47.40
2018-09-15T03:10:32.236Z,47.50
2018-09-15T03:11:36.462Z,47.40
2018-09-15T03:12:40.719Z,48.10
2018-09-15T03:13:44.980Z,47.50
2018-09-15T03:14:49.267Z,47.50
2018-09-15T03:15:53.682Z,47.50
2018-09-15T03:16:57.952Z,47.50
2018-09-15T03:18:02.391Z,47.50
2018-09-15T03:19:06.654Z,47.60
2018-09-15T03:20:11.061Z,47.50
2018-09-15T03:21:15.470Z,47.60
2018-09-15T03:22:19.730Z,47.60
2018-09-15T03:23:23.936Z,47.60
2018-09-15T03:24:28.201Z,47.60
2018-09-15T03:25:32.641Z,47.60
2018-09-15T03:26:36.918Z,47.60
2018-09-15T03:27:41.314Z,47.60
2018-09-15T03:28:45.549Z,47.70
2018-09-15T03:29:50.003Z,47.70
2018-09-15T03:30:54.464Z,47.70
2018-09-15T03:31:58.714Z,47.60
2018-09-15T03:33:03.205Z,47.60
2018-09-15T03:34:07.664Z,47.70
2018-09-15T03:35:12.153Z,47.70
2018-09-15T03:36:16.670Z,47.70
2018-09-15T03:37:20.989Z,47.70
2018-09-15T03:38:25.289Z,47.80
2018-09-15T03:39:29.680Z,47.80
2018-09-15T03:40:33.988Z,47.70
2018-09-15T03:41:38.298Z,48.40
2018-09-15T03:42:42.534Z,47.80
2018-09-15T03:43:46.926Z,47.70
2018-09-15T03:44:51.183Z,47.80
2018-09-15T03:45:55.538Z,47.70
2018-09-15T03:47:00.034Z,47.80
2018-09-15T03:48:04.326Z,47.70
2018-09-15T03:49:08.617Z,47.70
2018-09-15T03:50:13.077Z,47.70
2018-09-15T03:51:17.554Z,47.80
2018-09-15T03:52:21.820Z,48.40
2018-09-15T03:53:26.086Z,48.40
2018-09-15T03:54:30.583Z,47.70
2018-09-15T03:55:35.097Z,47.80
2018-09-15T03:56:39.550Z,47.80
2018-09-15T03:57:43.888Z,47.80
2018-09-15T03:58:48.184Z,47.80
2018-09-15T03:59:52.528Z,47.70
2018-09-15T04:00:57.014Z,47.70
2018-09-15T04:02:01.398Z,47.70
2018-09-15T04:03:05.873Z,47.60
2018-09-15T04:04:10.309Z,47.60
2018-09-15T04:05:14.650Z,47.60
2018-09-15T04:06:18.926Z,47.50
2018-09-15T04:07:23.362Z,47.50
2018-09-15T04:08:27.736Z,47.50
2018-09-15T04:09:32.132Z,47.50
2018-09-15T04:10:36.572Z,47.50
2018-09-15T04:11:40.855Z,47.50
2018-09-15T04:12:45.076Z,47.50
2018-09-15T04:13:49.364Z,47.50
2018-09-15T04:14:53.668Z,47.50
2018-09-15T04:15:57.893Z,47.50
2018-09-15T04:17:02.162Z,47.50
2018-09-15T04:18:06.546Z,47.40
2018-09-15T04:19:10.959Z,47.40
2018-09-15T04:20:15.182Z,47.40
2018-09-15T04:21:19.424Z,47.40
2018-09-15T04:22:23.689Z,47.40
2018-09-15T04:23:27.939Z,47.40
2018-09-15T04:24:32.233Z,48.10
2018-09-15T04:25:36.482Z,47.40
2018-09-15T04:26:40.906Z,47.40
2018-09-15T04:27:45.359Z,47.40
2018-09-15T04:28:49.626Z,47.30
2018-09-15T04:29:53.864Z,47.30
2018-09-15T04:30:58.139Z,47.30
2018-09-15T04:32:03.083Z,47.20
2018-09-15T04:33:07.449Z,47.20
2018-09-15T04:34:11.699Z,47.20
2018-09-15T04:35:16.218Z,47.20
2018-09-15T04:36:20.493Z,47.20
2018-09-15T04:37:24.754Z,47.10
2018-09-15T04:38:29.177Z,47.10
2018-09-15T04:39:33.440Z,47.10
2018-09-15T04:40:37.746Z,47.00
2018-09-15T04:41:42.317Z,47.00
2018-09-15T04:42:46.719Z,47.00
2018-09-15T04:43:51.203Z,47.00
2018-09-15T04:44:55.615Z,47.00
2018-09-15T04:45:59.896Z,47.00
2018-09-15T04:47:04.407Z,46.90
2018-09-15T04:48:08.999Z,46.90
2018-09-15T04:49:13.291Z,46.90
2018-09-15T04:50:17.796Z,46.90
2018-09-15T04:51:22.172Z,46.80
2018-09-15T04:52:26.517Z,46.80
2018-09-15T04:53:30.889Z,46.80
2018-09-15T04:54:35.315Z,46.80
2018-09-15T04:55:39.708Z,46.80
2018-09-15T04:56:44.009Z,46.80
2018-09-15T04:57:48.538Z,46.80
2018-09-15T04:58:53.046Z,46.70
2018-09-15T04:59:57.382Z,46.70
2018-09-15T05:01:01.771Z,46.70
2018-09-15T05:02:06.172Z,46.70
2018-09-15T05:03:10.555Z,46.70
2018-09-15T05:04:14.950Z,46.60
2018-09-15T05:05:19.178Z,46.60
2018-09-15T05:06:23.581Z,46.60
2018-09-15T05:07:27.853Z,46.60
2018-09-15T05:08:32.251Z,46.60
2018-09-15T05:09:36.645Z,46.60
2018-09-15T05:10:41.069Z,46.60
2018-09-15T05:11:45.330Z,46.60
2018-09-15T05:12:49.842Z,47.20
2018-09-15T05:13:54.067Z,46.60
2018-09-15T05:14:58.562Z,46.50
2018-09-15T05:16:02.811Z,46.50
2018-09-15T05:17:07.301Z,46.40
2018-09-15T05:18:11.577Z,46.50
2018-09-15T05:19:15.821Z,46.50
2018-09-15T05:20:20.272Z,46.40
2018-09-15T05:21:24.812Z,46.50
2018-09-15T05:22:29.286Z,46.50
2018-09-15T05:23:33.573Z,46.40
2018-09-15T05:24:37.979Z,46.40
2018-09-15T05:25:42.225Z,46.50
2018-09-15T05:26:46.695Z,46.40
2018-09-15T05:27:50.962Z,46.40
2018-09-15T05:28:55.188Z,46.40
2018-09-15T05:29:59.624Z,47.00
2018-09-15T05:31:03.968Z,46.40
2018-09-15T05:32:08.342Z,46.40
2018-09-15T05:33:12.751Z,46.30
2018-09-15T05:34:17.108Z,46.30
2018-09-15T05:35:21.413Z,46.30
2018-09-15T05:36:25.691Z,46.30
2018-09-15T05:37:30.204Z,46.30
2018-09-15T05:38:34.595Z,46.30
2018-09-15T05:39:39.034Z,46.30
2018-09-15T05:40:43.295Z,46.40
2018-09-15T05:41:47.538Z,46.30
2018-09-15T05:42:51.771Z,46.30
2018-09-15T05:43:56.019Z,46.30
2018-09-15T05:45:00.386Z,46.30
2018-09-15T05:46:04.612Z,46.30
2018-09-15T05:47:08.884Z,46.30
2018-09-15T05:48:13.119Z,46.30
2018-09-15T05:49:17.366Z,46.30
2018-09-15T05:50:21.590Z,46.30
2018-09-15T05:51:25.987Z,46.30
2018-09-15T05:52:30.382Z,46.30
2018-09-15T05:53:34.782Z,46.30
2018-09-15T05:54:39.008Z,46.30
2018-09-15T05:55:43.532Z,46.30
2018-09-15T05:56:48.012Z,46.30
2018-09-15T05:57:52.292Z,46.30
2018-09-15T05:58:56.557Z,46.30
2018-09-15T06:00:00.931Z,46.30
2018-09-15T06:01:05.241Z,46.30
2018-09-15T06:02:09.546Z,46.30
2018-09-15T06:03:13.930Z,46.30
2018-09-15T06:04:18.134Z,46.30
2018-09-15T06:05:22.394Z,46.30
2018-09-15T06:06:26.774Z,46.30
2018-09-15T06:07:31.115Z,46.40
2018-09-15T06:08:35.553Z,46.40
2018-09-15T06:09:39.837Z,46.40
2018-09-15T06:10:44.080Z,46.40
2018-09-15T06:11:48.384Z,46.50
2018-09-15T06:12:52.849Z,46.50
2018-09-15T06:13:57.349Z,47.10
2018-09-15T06:15:01.643Z,46.50
2018-09-15T06:16:06.235Z,46.50
2018-09-15T06:17:10.491Z,46.50
2018-09-15T06:18:14.941Z,46.50
2018-09-15T06:19:19.179Z,46.60
2018-09-15T06:20:23.413Z,46.50
2018-09-15T06:21:27.848Z,46.50
2018-09-15T06:22:32.060Z,46.60
2018-09-15T06:23:36.309Z,46.60
2018-09-15T06:24:40.557Z,46.60
2018-09-15T06:25:45.005Z,46.60
2018-09-15T06:26:49.264Z,46.70
2018-09-15T06:27:53.745Z,46.70
2018-09-15T06:28:58.158Z,46.70
2018-09-15T06:30:02.417Z,46.70
2018-09-15T06:31:06.867Z,47.40
2018-09-15T06:32:11.471Z,46.70
2018-09-15T06:33:15.711Z,46.60
2018-09-15T06:34:20.133Z,46.50
2018-09-15T06:35:24.329Z,46.50
2018-09-15T06:36:28.752Z,46.60
2018-09-15T06:37:32.972Z,46.50
2018-09-15T06:38:37.210Z,46.40
2018-09-15T06:39:41.932Z,46.50
2018-09-15T06:40:46.176Z,46.50
2018-09-15T06:41:50.442Z,46.50
2018-09-15T06:42:54.846Z,46.60
2018-09-15T06:43:59.312Z,46.60
2018-09-15T06:45:03.878Z,46.60
2018-09-15T06:46:08.180Z,46.60
2018-09-15T06:47:12.462Z,46.60
2018-09-15T06:48:16.870Z,46.60
2018-09-15T06:49:21.114Z,46.60
2018-09-15T06:50:25.436Z,46.70
2018-09-15T06:51:29.851Z,46.70
2018-09-15T06:52:34.125Z,46.70
2018-09-15T06:53:38.507Z,46.60
2018-09-15T06:54:42.920Z,46.60
2018-09-15T06:55:47.241Z,46.60
2018-09-15T06:56:51.772Z,46.60
2018-09-15T06:57:55.974Z,46.60
2018-09-15T06:59:00.165Z,46.70
2018-09-15T07:00:04.421Z,46.70
2018-09-15T07:01:08.808Z,46.70
2018-09-15T07:02:13.079Z,46.70
2018-09-15T07:03:17.350Z,46.70
2018-09-15T07:04:21.840Z,46.70
2018-09-15T07:05:26.247Z,46.80
2018-09-15T07:06:30.620Z,46.70
2018-09-15T07:07:34.907Z,46.70
2018-09-15T07:08:39.309Z,46.80
2018-09-15T07:09:43.799Z,46.80
2018-09-15T07:10:48.055Z,47.50
2018-09-15T07:11:52.504Z,46.80
2018-09-15T07:12:56.839Z,46.80
2018-09-15T07:14:01.213Z,46.70
2018-09-15T07:15:05.595Z,46.80
2018-09-15T07:16:10.000Z,46.70
2018-09-15T07:17:14.265Z,46.70
2018-09-15T07:18:25.925Z,46.70
2018-09-15T07:19:30.197Z,46.70
2018-09-15T07:20:34.618Z,46.70
2018-09-15T07:21:39.028Z,46.70
2018-09-15T07:22:43.289Z,46.70
2018-09-15T07:23:47.531Z,46.60
2018-09-15T07:24:51.918Z,46.60
2018-09-15T07:25:56.339Z,46.60
2018-09-15T07:27:00.845Z,46.70
2018-09-15T07:28:05.268Z,46.80
2018-09-15T07:29:09.498Z,46.80
2018-09-15T07:30:13.744Z,46.80
2018-09-15T07:31:18.130Z,46.80
2018-09-15T07:32:22.603Z,46.90
2018-09-15T07:33:27.034Z,46.90
2018-09-15T07:34:31.421Z,46.80
2018-09-15T07:35:35.854Z,46.80
2018-09-15T07:36:40.088Z,46.80
2018-09-15T07:37:44.584Z,46.80
2018-09-15T07:38:48.892Z,46.90
2018-09-15T07:39:53.620Z,47.00
2018-09-15T07:40:58.047Z,47.10
2018-09-15T07:42:02.299Z,47.10
2018-09-15T07:43:06.788Z,47.10
2018-09-15T07:44:11.061Z,47.20
2018-09-15T07:45:15.415Z,47.20
2018-09-15T07:46:19.647Z,47.80
2018-09-15T07:47:24.520Z,47.30
2018-09-15T07:48:28.943Z,47.50
2018-09-15T07:49:33.370Z,47.40
2018-09-15T07:50:37.792Z,47.40
2018-09-15T07:51:42.252Z,47.40
2018-09-15T07:52:46.543Z,47.50
2018-09-15T07:53:51.001Z,47.40
2018-09-15T07:54:55.220Z,47.50
2018-09-15T07:55:59.470Z,47.50
2018-09-15T07:57:03.925Z,47.50
2018-09-15T07:58:08.189Z,47.40
2018-09-15T07:59:12.421Z,47.50
2018-09-15T08:00:16.887Z,47.60
2018-09-15T08:01:21.102Z,47.60
2018-09-15T08:02:25.633Z,47.70
2018-09-15T08:03:30.021Z,47.60
2018-09-15T08:04:34.257Z,47.70
2018-09-15T08:05:38.672Z,48.30
2018-09-15T08:06:42.878Z,47.70
2018-09-15T08:07:47.303Z,47.70
2018-09-15T08:08:51.644Z,47.70
2018-09-15T08:09:55.981Z,47.70
2018-09-15T08:11:00.403Z,47.70
2018-09-15T08:12:04.572Z,47.80
2018-09-15T08:13:09.004Z,47.80
2018-09-15T08:14:13.268Z,47.90
2018-09-15T08:15:17.793Z,47.90
2018-09-15T08:16:22.263Z,47.90
2018-09-15T08:17:26.646Z,48.00
2018-09-15T08:18:30.925Z,48.00
2018-09-15T08:19:35.364Z,48.40
2018-09-15T08:20:39.859Z,48.00
2018-09-15T08:21:44.157Z,48.00
2018-09-15T08:22:48.427Z,48.00
2018-09-15T08:23:52.760Z,47.90
2018-09-15T08:24:57.058Z,47.70
2018-09-15T08:26:01.288Z,47.60
2018-09-15T08:27:05.731Z,47.70
2018-09-15T08:28:10.175Z,47.60
2018-09-15T08:29:14.553Z,47.70
2018-09-15T08:30:18.800Z,47.60
2018-09-15T08:31:23.079Z,47.60
2018-09-15T08:32:27.373Z,47.70
2018-09-15T08:33:31.939Z,47.60
2018-09-15T08:34:36.216Z,47.70
2018-09-15T08:35:40.590Z,48.30
2018-09-15T08:36:44.807Z,47.70
2018-09-15T08:37:49.261Z,47.70
2018-09-15T08:38:53.703Z,47.60
2018-09-15T08:39:58.164Z,47.60
2018-09-15T08:41:02.459Z,47.70
2018-09-15T08:42:06.854Z,48.40
2018-09-15T08:43:11.123Z,47.80
2018-09-15T08:44:15.574Z,47.80
2018-09-15T08:45:19.849Z,47.90
2018-09-15T08:46:24.277Z,47.90
2018-09-15T08:47:28.765Z,47.80
2018-09-15T08:48:33.054Z,47.80
2018-09-15T08:49:37.358Z,47.70
2018-09-15T08:50:41.733Z,47.70
2018-09-15T08:51:46.160Z,47.70
2018-09-15T08:52:50.354Z,47.60
2018-09-15T08:53:55.048Z,47.70
2018-09-15T08:54:59.471Z,47.70
2018-09-15T08:56:03.959Z,47.60
2018-09-15T08:57:08.184Z,47.60
2018-09-15T08:58:12.603Z,47.60
2018-09-15T08:59:18.240Z,47.50
2018-09-15T09:00:22.555Z,47.60
2018-09-15T09:01:26.981Z,48.40
2018-09-15T09:02:31.229Z,47.60
2018-09-15T09:03:35.498Z,47.60
2018-09-15T09:04:39.970Z,47.70
2018-09-15T09:05:44.494Z,48.30
2018-09-15T09:06:48.846Z,47.70
2018-09-15T09:07:53.254Z,47.70
2018-09-15T09:08:57.774Z,47.70
2018-09-15T09:10:02.269Z,47.70
2018-09-15T09:11:06.707Z,47.70
2018-09-15T09:12:11.110Z,47.80
2018-09-15T09:13:15.466Z,47.80
2018-09-15T09:14:19.822Z,47.90
2018-09-15T09:15:24.182Z,47.90
2018-09-15T09:16:28.451Z,47.90
2018-09-15T09:17:32.747Z,47.90
2018-09-15T09:18:37.013Z,47.90
2018-09-15T09:19:41.418Z,47.90
2018-09-15T09:20:45.780Z,47.90
2018-09-15T09:21:50.021Z,48.00
2018-09-15T09:22:54.272Z,48.10
2018-09-15T09:23:59.049Z,48.20
2018-09-15T09:25:03.563Z,48.10
2018-09-15T09:26:07.961Z,48.10
2018-09-15T09:27:12.321Z,48.10
2018-09-15T09:28:16.749Z,48.10
2018-09-15T09:29:21.041Z,48.20
2018-09-15T09:30:25.263Z,48.10
2018-09-15T09:31:29.496Z,48.10
2018-09-15T09:32:33.785Z,48.10
2018-09-15T09:33:38.028Z,48.10
2018-09-15T09:34:42.346Z,48.80
2018-09-15T09:35:46.762Z,48.30
2018-09-15T09:36:51.149Z,48.30
2018-09-15T09:37:55.432Z,48.30
2018-09-15T09:38:59.741Z,48.40
2018-09-15T09:40:04.160Z,48.40
2018-09-15T09:41:08.390Z,48.30
2018-09-15T09:42:12.812Z,48.20
2018-09-15T09:43:17.205Z,48.20
2018-09-15T09:44:21.591Z,49.20
2018-09-15T09:45:25.809Z,48.60
2018-09-15T09:46:30.034Z,48.60
2018-09-15T09:47:34.753Z,48.90
2018-09-15T09:48:39.336Z,48.90
2018-09-15T09:49:43.734Z,49.00
2018-09-15T09:50:48.137Z,49.00
2018-09-15T09:51:52.479Z,49.00
2018-09-15T09:52:56.981Z,49.00
2018-09-15T09:54:01.223Z,49.00
2018-09-15T09:55:05.539Z,48.90
2018-09-15T09:56:09.811Z,48.90
2018-09-15T09:57:14.186Z,49.00
2018-09-15T09:58:18.625Z,49.00
2018-09-15T09:59:23.656Z,49.10
2018-09-15T10:00:27.924Z,49.10
2018-09-15T10:01:32.520Z,49.10
2018-09-15T10:02:37.064Z,49.20
2018-09-15T10:03:41.939Z,49.20
2018-09-15T10:04:46.484Z,49.20
2018-09-15T10:05:50.770Z,49.10
2018-09-15T10:06:55.303Z,49.40
2018-09-15T10:07:59.760Z,49.20
2018-09-15T10:09:04.024Z,49.10
2018-09-15T10:10:08.368Z,49.20
2018-09-15T10:11:12.811Z,49.10
2018-09-15T10:12:17.090Z,49.10
2018-09-15T10:13:21.470Z,49.20
2018-09-15T10:14:25.877Z,49.20
2018-09-15T10:15:30.201Z,49.20
2018-09-15T10:16:34.666Z,49.70
2018-09-15T10:17:39.109Z,49.00
2018-09-15T10:18:43.696Z,49.40
2018-09-15T10:19:48.000Z,49.40
2018-09-15T10:20:52.453Z,49.60
2018-09-15T10:21:57.232Z,49.60
2018-09-15T10:23:01.654Z,49.60
2018-09-15T10:24:05.932Z,49.50
2018-09-15T10:25:10.316Z,49.60
2018-09-15T10:26:14.839Z,49.50
2018-09-15T10:27:19.164Z,49.40
2018-09-15T10:28:23.599Z,49.30
2018-09-15T10:29:28.275Z,49.30
2018-09-15T10:30:32.648Z,49.20
2018-09-15T10:31:37.180Z,49.30
2018-09-15T10:32:41.667Z,49.20
2018-09-15T10:33:46.048Z,49.20
2018-09-15T10:34:50.501Z,49.10
2018-09-15T10:35:55.181Z,49.10
2018-09-15T10:36:59.746Z,49.10
2018-09-15T10:38:04.217Z,49.00
2018-09-15T10:39:08.835Z,49.10
2018-09-15T10:40:13.466Z,49.00
2018-09-15T10:41:17.773Z,49.10
2018-09-15T10:42:22.136Z,49.00
2018-09-15T10:43:26.848Z,49.10
2018-09-15T10:44:31.463Z,49.00
2018-09-15T10:45:35.847Z,49.00
2018-09-15T10:46:40.431Z,48.90
2018-09-15T10:47:44.875Z,48.90
2018-09-15T10:48:49.424Z,48.80
2018-09-15T10:49:53.962Z,48.80
2018-09-15T10:50:58.436Z,48.80
2018-09-15T10:52:02.761Z,48.80
2018-09-15T10:53:07.029Z,48.80
2018-09-15T10:54:11.318Z,48.90
2018-09-15T10:55:15.645Z,48.90
2018-09-15T10:56:19.911Z,48.90
2018-09-15T10:57:24.358Z,48.80
2018-09-15T10:58:28.743Z,48.80
2018-09-15T10:59:33.100Z,48.80
2018-09-15T11:00:37.434Z,48.80
2018-09-15T11:01:41.742Z,48.80
2018-09-15T11:02:46.208Z,48.80
2018-09-15T11:03:50.774Z,48.80
2018-09-15T11:04:55.198Z,48.80
2018-09-15T11:05:59.824Z,48.80
2018-09-15T11:07:04.040Z,48.80
2018-09-15T11:08:08.530Z,48.80
2018-09-15T11:09:12.873Z,48.80
2018-09-15T11:10:17.302Z,48.90
2018-09-15T11:11:25.469Z,49.00
2018-09-15T11:12:30.135Z,49.00
2018-09-15T11:13:34.466Z,49.60
2018-09-15T11:14:38.913Z,49.60
2018-09-15T11:15:43.318Z,48.90
2018-09-15T11:16:47.695Z,49.00
2018-09-15T11:17:51.999Z,49.00
2018-09-15T11:18:56.506Z,48.90
2018-09-15T11:20:00.955Z,48.90
2018-09-15T11:21:05.413Z,48.90
2018-09-15T11:22:09.716Z,48.90
2018-09-15T11:23:14.212Z,48.90
2018-09-15T11:24:18.695Z,48.90
2018-09-15T11:25:22.969Z,49.00
2018-09-15T11:26:27.379Z,48.90
2018-09-15T11:27:31.930Z,48.90
2018-09-15T11:28:36.437Z,48.90
2018-09-15T11:29:40.963Z,48.80
2018-09-15T11:30:45.239Z,48.80
2018-09-15T11:31:49.523Z,48.80
2018-09-15T11:32:54.065Z,48.80
2018-09-15T11:33:58.645Z,48.80
2018-09-15T11:35:02.979Z,49.00
2018-09-15T11:36:07.459Z,48.80
2018-09-15T11:37:11.894Z,48.80
2018-09-15T11:38:16.444Z,48.70
2018-09-15T11:39:20.682Z,48.70
2018-09-15T11:40:24.994Z,48.70
2018-09-15T11:41:29.247Z,48.70
2018-09-15T11:42:33.559Z,48.70
2018-09-15T11:43:38.084Z,48.70
2018-09-15T11:44:42.270Z,48.70
2018-09-15T11:45:46.661Z,48.80
2018-09-15T11:46:50.940Z,48.70
2018-09-15T11:47:55.335Z,48.80
2018-09-15T11:48:59.816Z,48.80
2018-09-15T11:50:04.224Z,48.80
2018-09-15T11:51:08.492Z,48.80
2018-09-15T11:52:14.383Z,48.80
2018-09-15T11:53:18.733Z,48.80
2018-09-15T11:54:23.284Z,48.80
2018-09-15T11:55:27.689Z,48.80
2018-09-15T11:56:32.000Z,48.80
2018-09-15T11:57:36.590Z,48.80
2018-09-15T11:58:40.868Z,48.70
2018-09-15T11:59:45.382Z,48.70
2018-09-15T12:00:49.643Z,48.70
2018-09-15T12:01:54.061Z,48.70
2018-09-15T12:02:58.462Z,48.70
2018-09-15T12:04:02.744Z,48.80
2018-09-15T12:05:07.164Z,48.80
2018-09-15T12:06:11.667Z,48.80
2018-09-15T12:07:15.917Z,48.80
2018-09-15T12:08:20.206Z,48.80
2018-09-15T12:09:24.498Z,48.80
2018-09-15T12:10:28.871Z,48.90
2018-09-15T12:11:33.289Z,48.80
2018-09-15T12:12:37.825Z,48.80
2018-09-15T12:13:42.094Z,48.80
2018-09-15T12:14:46.492Z,48.80
2018-09-15T12:15:50.742Z,48.80
2018-09-15T12:16:55.443Z,48.90
2018-09-15T12:17:59.705Z,48.80
2018-09-15T12:19:04.207Z,48.90
2018-09-15T12:20:08.635Z,48.80
2018-09-15T12:21:13.101Z,48.80
2018-09-15T12:22:17.697Z,48.80
2018-09-15T12:23:22.044Z,48.80
2018-09-15T12:24:26.503Z,48.80
2018-09-15T12:25:30.773Z,48.80
2018-09-15T12:26:35.448Z,48.70
2018-09-15T12:27:39.834Z,48.70
2018-09-15T12:28:44.071Z,48.70
2018-09-15T12:29:48.410Z,48.70
2018-09-15T12:30:52.843Z,48.70
2018-09-15T12:31:57.401Z,48.70
2018-09-15T12:33:01.855Z,48.80
2018-09-15T12:34:06.149Z,48.80
2018-09-15T12:35:10.405Z,48.80
2018-09-15T12:36:14.937Z,48.80
2018-09-15T12:37:19.319Z,48.80
2018-09-15T12:38:23.597Z,48.80
2018-09-15T12:39:28.106Z,48.80
2018-09-15T12:40:32.546Z,48.80
2018-09-15T12:41:36.850Z,48.80
2018-09-15T12:42:41.284Z,48.80
2018-09-15T12:43:45.733Z,48.80
2018-09-15T12:44:50.342Z,48.80
2018-09-15T12:45:54.816Z,48.80
2018-09-15T12:46:59.677Z,48.80
2018-09-15T12:48:03.986Z,48.80
2018-09-15T12:49:08.471Z,48.80
2018-09-15T12:50:12.740Z,48.80
2018-09-15T12:51:17.233Z,48.80
2018-09-15T12:52:21.698Z,48.90
2018-09-15T12:53:25.893Z,48.80
2018-09-15T12:54:30.495Z,48.90
2018-09-15T12:55:35.003Z,48.80
2018-09-15T12:56:39.597Z,48.80
2018-09-15T12:57:43.872Z,48.90
2018-09-15T12:58:48.081Z,48.90
2018-09-15T12:59:52.514Z,48.90
2018-09-15T13:00:56.990Z,48.90
2018-09-15T13:02:01.466Z,48.90
2018-09-15T13:03:05.803Z,48.90
2018-09-15T13:04:10.088Z,48.90
2018-09-15T13:05:14.518Z,48.90
2018-09-15T13:06:18.817Z,49.00
2018-09-15T13:07:23.097Z,49.00
2018-09-15T13:08:27.297Z,49.10
2018-09-15T13:09:31.524Z,49.10
2018-09-15T13:10:35.761Z,49.10
2018-09-15T13:11:40.653Z,49.10
2018-09-15T13:12:44.880Z,49.10
2018-09-15T13:13:49.075Z,49.10
2018-09-15T13:14:54.717Z,49.10
2018-09-15T13:15:59.081Z,49.20
2018-09-15T13:17:03.450Z,49.20
2018-09-15T13:18:07.831Z,49.20
2018-09-15T13:19:12.092Z,49.20
2018-09-15T13:20:16.427Z,49.20
2018-09-15T13:21:20.854Z,49.10
2018-09-15T13:22:25.113Z,49.10
2018-09-15T13:23:29.492Z,49.10
2018-09-15T13:24:33.884Z,49.00
2018-09-15T13:25:38.111Z,49.10
2018-09-15T13:26:42.555Z,48.90
2018-09-15T13:27:46.985Z,49.10
2018-09-15T13:28:51.316Z,49.10
2018-09-15T13:29:55.848Z,49.20
2018-09-15T13:31:00.049Z,49.10
2018-09-15T13:32:04.413Z,49.60
2018-09-15T13:33:08.828Z,49.60
2018-09-15T13:34:13.425Z,49.40
2018-09-15T13:35:17.688Z,49.30
2018-09-15T13:36:22.157Z,49.00
2018-09-15T13:37:26.564Z,49.00
2018-09-15T13:38:31.636Z,49.00
2018-09-15T13:39:36.046Z,49.10
2018-09-15T13:40:40.358Z,49.10
2018-09-15T13:41:44.587Z,53.90
2018-09-15T13:42:49.063Z,51.60
2018-09-15T13:43:53.276Z,50.50
2018-09-15T13:44:57.544Z,51.20
2018-09-15T13:46:02.002Z,50.40
2018-09-15T13:47:06.256Z,50.10
2018-09-15T13:48:10.782Z,50.10
2018-09-15T13:49:15.049Z,50.10